Terminal Aerodrome Forecast
Issued by NWS

Home | Current Version | Previous Version | Text Only | Print | Product List | Glossary On
Versions: 1 2 3 4 5 6 7 8 9 10 11 12 13 14 15 16 17 18 19
000
FTUS43 KEAX 012300
TAFSTJ
TAF
KSTJ 012320Z 0200/0224 30004KT P6SM SCT060
     FM020900 VRB02KT 3SM BR FEW004
      TEMPO 0210/0212 1/2SM FG BKN004
     FM021400 15005KT P6SM SCT030=

USA.gov is the U.S. government's official web portal to all federal, state and local government web resources and services.